sensor_id;sensor_type;location;lat;lon;timestamp;temperature;humidity
48575;DHT22;34352;51.084;3.712;2023-04-15T00:02:16;11.10;1.00
48575;DHT22;34352;51.084;3.712;2023-04-15T00:04:45;11.30;1.00
48575;DHT22;34352;51.084;3.712;2023-04-15T00:07:15;10.30;1.00
48575;DHT22;34352;51.084;3.712;2023-04-15T00:09:50;10.50;1.00
48575;DHT22;34352;51.084;3.712;2023-04-15T00:12:24;10.40;1.00
48575;DHT22;34352;51.084;3.712;2023-04-15T00:14:55;11.40;1.00
48575;DHT22;34352;51.084;3.712;2023-04-15T00:17:49;11.30;1.00
48575;DHT22;34352;51.084;3.712;2023-04-15T00:20:20;9.90;1.00
48575;DHT22;34352;51.084;3.712;2023-04-15T00:22:49;11.50;1.00
48575;DHT22;34352;51.084;3.712;2023-04-15T00:25:22;11.50;1.00
48575;DHT22;34352;51.084;3.712;2023-04-15T00:27:51;12.10;1.00
48575;DHT22;34352;51.084;3.712;2023-04-15T00:30:22;10.90;1.00
48575;DHT22;34352;51.084;3.712;2023-04-15T00:32:52;9.80;1.00
48575;DHT22;34352;51.084;3.712;2023-04-15T00:35:30;10.90;1.00
48575;DHT22;34352;51.084;3.712;2023-04-15T00:38:00;11.30;1.00
48575;DHT22;34352;51.084;3.712;2023-04-15T00:40:33;11.40;1.00
48575;DHT22;34352;51.084;3.712;2023-04-15T00:43:00;11.50;1.00
48575;DHT22;34352;51.084;3.712;2023-04-15T00:45:34;11.30;1.00
48575;DHT22;34352;51.084;3.712;2023-04-15T00:48:07;12.20;1.00
48575;DHT22;34352;51.084;3.712;2023-04-15T00:50:47;11.40;1.00
48575;DHT22;34352;51.084;3.712;2023-04-15T00:53:25;11.00;1.00
48575;DHT22;34352;51.084;3.712;2023-04-15T00:55:51;11.20;1.00
48575;DHT22;34352;51.084;3.712;2023-04-15T00:58:17;11.20;1.00
48575;DHT22;34352;51.084;3.712;2023-04-15T01:00:48;11.00;1.00
48575;DHT22;34352;51.084;3.712;2023-04-15T01:03:19;11.00;1.00
48575;DHT22;34352;51.084;3.712;2023-04-15T01:05:49;10.90;1.00
48575;DHT22;34352;51.084;3.712;2023-04-15T01:08:20;11.00;1.00
48575;DHT22;34352;51.084;3.712;2023-04-15T01:10:50;10.90;6.80
48575;DHT22;34352;51.084;3.712;2023-04-15T01:13:18;10.80;7.60
48575;DHT22;34352;51.084;3.712;2023-04-15T01:15:46;10.40;11.00
48575;DHT22;34352;51.084;3.712;2023-04-15T01:18:13;10.90;14.80
48575;DHT22;34352;51.084;3.712;2023-04-15T01:20:44;10.70;15.70
48575;DHT22;34352;51.084;3.712;2023-04-15T01:23:17;11.10;18.20
48575;DHT22;34352;51.084;3.712;2023-04-15T01:25:46;10.60;22.40
48575;DHT22;34352;51.084;3.712;2023-04-15T01:28:13;10.50;28.30
48575;DHT22;34352;51.084;3.712;2023-04-15T01:30:40;10.50;27.60
48575;DHT22;34352;51.084;3.712;2023-04-15T01:33:09;10.80;31.50
48575;DHT22;34352;51.084;3.712;2023-04-15T01:35:36;10.40;31.40
48575;DHT22;34352;51.084;3.712;2023-04-15T01:38:11;10.30;34.20
48575;DHT22;34352;51.084;3.712;2023-04-15T01:40:39;10.20;42.80
48575;DHT22;34352;51.084;3.712;2023-04-15T01:43:11;10.10;45.00
48575;DHT22;34352;51.084;3.712;2023-04-15T01:45:37;10.20;47.90
48575;DHT22;34352;51.084;3.712;2023-04-15T01:48:03;10.10;48.70
48575;DHT22;34352;51.084;3.712;2023-04-15T01:50:41;10.00;49.60
48575;DHT22;34352;51.084;3.712;2023-04-15T01:53:11;10.00;53.80
48575;DHT22;34352;51.084;3.712;2023-04-15T01:55:39;10.00;51.50
48575;DHT22;34352;51.084;3.712;2023-04-15T01:58:06;10.10;53.10
48575;DHT22;34352;51.084;3.712;2023-04-15T02:00:43;9.90;53.80
48575;DHT22;34352;51.084;3.712;2023-04-15T02:03:11;9.90;56.60
48575;DHT22;34352;51.084;3.712;2023-04-15T02:05:39;11.60;56.70
48575;DHT22;34352;51.084;3.712;2023-04-15T02:08:08;10.00;56.00
48575;DHT22;34352;51.084;3.712;2023-04-15T02:10:35;10.00;55.80
48575;DHT22;34352;51.084;3.712;2023-04-15T02:13:03;10.40;53.90
48575;DHT22;34352;51.084;3.712;2023-04-15T02:15:29;9.40;49.90
48575;DHT22;34352;51.084;3.712;2023-04-15T02:17:57;10.10;50.50
48575;DHT22;34352;51.084;3.712;2023-04-15T02:20:36;10.10;56.70
48575;DHT22;34352;51.084;3.712;2023-04-15T02:23:27;10.00;54.40
48575;DHT22;34352;51.084;3.712;2023-04-15T02:25:52;10.10;54.30
48575;DHT22;34352;51.084;3.712;2023-04-15T02:28:24;10.00;54.40
48575;DHT22;34352;51.084;3.712;2023-04-15T02:30:52;10.10;54.00
48575;DHT22;34352;51.084;3.712;2023-04-15T02:33:22;10.60;56.20
48575;DHT22;34352;51.084;3.712;2023-04-15T02:35:47;10.20;51.20
48575;DHT22;34352;51.084;3.712;2023-04-15T02:38:14;10.20;53.00
48575;DHT22;34352;51.084;3.712;2023-04-15T02:40:44;10.80;56.00
48575;DHT22;34352;51.084;3.712;2023-04-15T02:43:12;10.10;57.90
48575;DHT22;34352;51.084;3.712;2023-04-15T02:45:40;10.10;59.50
48575;DHT22;34352;51.084;3.712;2023-04-15T02:48:12;10.00;60.50
48575;DHT22;34352;51.084;3.712;2023-04-15T02:50:45;10.10;61.50
48575;DHT22;34352;51.084;3.712;2023-04-15T02:53:16;10.10;61.70
48575;DHT22;34352;51.084;3.712;2023-04-15T02:55:46;10.10;61.60
48575;DHT22;34352;51.084;3.712;2023-04-15T02:58:15;11.30;61.80
48575;DHT22;34352;51.084;3.712;2023-04-15T03:00:41;10.00;61.30
48575;DHT22;34352;51.084;3.712;2023-04-15T03:03:09;10.00;61.40
48575;DHT22;34352;51.084;3.712;2023-04-15T03:05:41;10.00;65.40
48575;DHT22;34352;51.084;3.712;2023-04-15T03:08:13;10.00;65.00
48575;DHT22;34352;51.084;3.712;2023-04-15T03:10:40;9.90;66.40
48575;DHT22;34352;51.084;3.712;2023-04-15T03:13:12;9.90;69.50
48575;DHT22;34352;51.084;3.712;2023-04-15T03:15:42;10.90;69.00
48575;DHT22;34352;51.084;3.712;2023-04-15T03:18:10;10.90;69.70
48575;DHT22;34352;51.084;3.712;2023-04-15T03:20:47;9.90;68.90
48575;DHT22;34352;51.084;3.712;2023-04-15T03:23:15;9.90;70.60
48575;DHT22;34352;51.084;3.712;2023-04-15T03:25:44;10.00;69.80
48575;DHT22;34352;51.084;3.712;2023-04-15T03:28:21;10.10;68.30
48575;DHT22;34352;51.084;3.712;2023-04-15T03:30:47;11.40;68.00
48575;DHT22;34352;51.084;3.712;2023-04-15T03:33:13;10.00;68.00
48575;DHT22;34352;51.084;3.712;2023-04-15T03:35:41;10.00;71.00
48575;DHT22;34352;51.084;3.712;2023-04-15T03:38:07;10.10;73.90
48575;DHT22;34352;51.084;3.712;2023-04-15T03:40:46;10.60;75.20
48575;DHT22;34352;51.084;3.712;2023-04-15T03:43:12;10.60;74.20
48575;DHT22;34352;51.084;3.712;2023-04-15T03:45:40;10.00;73.20
48575;DHT22;34352;51.084;3.712;2023-04-15T03:48:06;10.30;73.40
48575;DHT22;34352;51.084;3.712;2023-04-15T03:50:33;10.10;75.40
48575;DHT22;34352;51.084;3.712;2023-04-15T03:52:59;10.00;73.90
48575;DHT22;34352;51.084;3.712;2023-04-15T03:55:27;10.10;75.40
48575;DHT22;34352;51.084;3.712;2023-04-15T03:57:57;10.00;76.00
48575;DHT22;34352;51.084;3.712;2023-04-15T04:00:29;10.00;76.20
48575;DHT22;34352;51.084;3.712;2023-04-15T04:02:57;11.50;75.00
48575;DHT22;34352;51.084;3.712;2023-04-15T04:05:29;9.60;75.20
48575;DHT22;34352;51.084;3.712;2023-04-15T04:07:56;9.40;78.00
48575;DHT22;34352;51.084;3.712;2023-04-15T04:10:23;9.90;75.50
48575;DHT22;34352;51.084;3.712;2023-04-15T04:12:58;11.60;79.20
48575;DHT22;34352;51.084;3.712;2023-04-15T04:15:24;10.20;77.70
48575;DHT22;34352;51.084;3.712;2023-04-15T04:17:50;10.10;76.40
48575;DHT22;34352;51.084;3.712;2023-04-15T04:20:21;10.00;76.50
48575;DHT22;34352;51.084;3.712;2023-04-15T04:22:49;8.50;78.30
48575;DHT22;34352;51.084;3.712;2023-04-15T04:25:18;12.10;79.40
48575;DHT22;34352;51.084;3.712;2023-04-15T04:27:43;10.30;77.50
48575;DHT22;34352;51.084;3.712;2023-04-15T04:30:10;10.70;78.30
48575;DHT22;34352;51.084;3.712;2023-04-15T04:32:42;10.40;78.10
48575;DHT22;34352;51.084;3.712;2023-04-15T04:35:16;10.30;76.30
48575;DHT22;34352;51.084;3.712;2023-04-15T04:37:45;11.30;76.80
48575;DHT22;34352;51.084;3.712;2023-04-15T04:40:18;10.50;75.20
48575;DHT22;34352;51.084;3.712;2023-04-15T04:42:58;10.60;75.80
48575;DHT22;34352;51.084;3.712;2023-04-15T04:45:28;10.30;75.10
48575;DHT22;34352;51.084;3.712;2023-04-15T04:47:58;10.30;73.20
48575;DHT22;34352;51.084;3.712;2023-04-15T04:50:27;10.20;72.00
48575;DHT22;34352;51.084;3.712;2023-04-15T04:53:02;9.40;72.00
48575;DHT22;34352;51.084;3.712;2023-04-15T04:55:48;9.90;73.40
48575;DHT22;34352;51.084;3.712;2023-04-15T04:58:16;10.10;75.70
48575;DHT22;34352;51.084;3.712;2023-04-15T05:00:42;10.10;69.30
48575;DHT22;34352;51.084;3.712;2023-04-15T05:03:11;9.40;66.70
48575;DHT22;34352;51.084;3.712;2023-04-15T05:05:53;11.10;69.00
48575;DHT22;34352;51.084;3.712;2023-04-15T05:08:22;9.80;73.70
48575;DHT22;34352;51.084;3.712;2023-04-15T05:10:54;9.20;70.20
48575;DHT22;34352;51.084;3.712;2023-04-15T05:13:48;10.10;72.50
48575;DHT22;34352;51.084;3.712;2023-04-15T05:16:34;10.30;73.40
48575;DHT22;34352;51.084;3.712;2023-04-15T05:19:02;9.90;71.80
48575;DHT22;34352;51.084;3.712;2023-04-15T05:21:47;10.20;68.30
48575;DHT22;34352;51.084;3.712;2023-04-15T05:24:14;9.10;67.10
48575;DHT22;34352;51.084;3.712;2023-04-15T05:26:49;10.20;66.30
48575;DHT22;34352;51.084;3.712;2023-04-15T05:29:22;11.50;69.40
48575;DHT22;34352;51.084;3.712;2023-04-15T05:32:03;9.90;69.20
48575;DHT22;34352;51.084;3.712;2023-04-15T05:34:39;9.50;69.10
48575;DHT22;34352;51.084;3.712;2023-04-15T05:37:08;10.30;68.90
48575;DHT22;34352;51.084;3.712;2023-04-15T05:39:40;9.90;72.70
48575;DHT22;34352;51.084;3.712;2023-04-15T05:42:17;10.30;72.40
48575;DHT22;34352;51.084;3.712;2023-04-15T05:44:48;10.30;73.50
48575;DHT22;34352;51.084;3.712;2023-04-15T05:47:25;9.60;69.90
48575;DHT22;34352;51.084;3.712;2023-04-15T05:49:57;10.20;67.50
48575;DHT22;34352;51.084;3.712;2023-04-15T05:52:34;11.00;67.80
48575;DHT22;34352;51.084;3.712;2023-04-15T05:55:10;10.00;70.30
48575;DHT22;34352;51.084;3.712;2023-04-15T05:57:38;10.40;72.00
48575;DHT22;34352;51.084;3.712;2023-04-15T06:07:18;9.90;75.50
48575;DHT22;34352;51.084;3.712;2023-04-15T06:13:22;10.20;77.60
48575;DHT22;34352;51.084;3.712;2023-04-15T06:16:24;10.60;74.20
48575;DHT22;34352;51.084;3.712;2023-04-15T06:19:20;10.10;73.50
48575;DHT22;34352;51.084;3.712;2023-04-15T06:21:56;9.70;73.70
48575;DHT22;34352;51.084;3.712;2023-04-15T06:24:34;11.40;73.50
48575;DHT22;34352;51.084;3.712;2023-04-15T06:27:12;11.00;69.90
48575;DHT22;34352;51.084;3.712;2023-04-15T06:29:40;11.10;68.60
48575;DHT22;34352;51.084;3.712;2023-04-15T06:32:22;10.80;63.90
48575;DHT22;34352;51.084;3.712;2023-04-15T06:35:05;11.40;62.80
48575;DHT22;34352;51.084;3.712;2023-04-15T06:37:33;11.00;58.60
48575;DHT22;34352;51.084;3.712;2023-04-15T06:40:01;11.50;55.10
48575;DHT22;34352;51.084;3.712;2023-04-15T06:42:35;11.50;54.20
48575;DHT22;34352;51.084;3.712;2023-04-15T06:45:11;11.30;57.10
48575;DHT22;34352;51.084;3.712;2023-04-15T06:47:41;11.70;58.80
48575;DHT22;34352;51.084;3.712;2023-04-15T06:50:09;11.80;50.10
48575;DHT22;34352;51.084;3.712;2023-04-15T06:53:09;11.90;48.10
48575;DHT22;34352;51.084;3.712;2023-04-15T06:55:39;12.00;47.60
48575;DHT22;34352;51.084;3.712;2023-04-15T06:58:07;12.20;37.00
48575;DHT22;34352;51.084;3.712;2023-04-15T07:00:35;12.30;39.40
48575;DHT22;34352;51.084;3.712;2023-04-15T07:03:10;12.50;32.20
48575;DHT22;34352;51.084;3.712;2023-04-15T07:05:46;12.30;28.50
48575;DHT22;34352;51.084;3.712;2023-04-15T07:08:14;12.90;22.80
48575;DHT22;34352;51.084;3.712;2023-04-15T07:10:40;13.30;9.80
48575;DHT22;34352;51.084;3.712;2023-04-15T07:13:24;13.50;2.50
48575;DHT22;34352;51.084;3.712;2023-04-15T07:16:01;13.70;1.00
48575;DHT22;34352;51.084;3.712;2023-04-15T07:18:34;14.00;1.00
48575;DHT22;34352;51.084;3.712;2023-04-15T07:21:06;13.90;1.00
48575;DHT22;34352;51.084;3.712;2023-04-15T07:23:42;13.80;1.00
48575;DHT22;34352;51.084;3.712;2023-04-15T07:26:26;13.70;1.00
48575;DHT22;34352;51.084;3.712;2023-04-15T07:28:54;13.80;1.00
48575;DHT22;34352;51.084;3.712;2023-04-15T07:31:21;13.70;1.00
48575;DHT22;34352;51.084;3.712;2023-04-15T07:34:20;12.70;1.00
48575;DHT22;34352;51.084;3.712;2023-04-15T07:36:51;13.00;1.00
48575;DHT22;34352;51.084;3.712;2023-04-15T07:39:47;12.90;1.00
48575;DHT22;34352;51.084;3.712;2023-04-15T07:42:21;12.60;1.00
48575;DHT22;34352;51.084;3.712;2023-04-15T07:44:52;12.50;1.00
48575;DHT22;34352;51.084;3.712;2023-04-15T07:47:37;12.40;1.00
48575;DHT22;34352;51.084;3.712;2023-04-15T07:50:07;11.60;1.00
48575;DHT22;34352;51.084;3.712;2023-04-15T07:52:42;12.70;1.00
48575;DHT22;34352;51.084;3.712;2023-04-15T07:57:52;13.10;1.00
48575;DHT22;34352;51.084;3.712;2023-04-15T08:03:01;13.60;1.00
48575;DHT22;34352;51.084;3.712;2023-04-15T08:08:02;14.30;1.00
48575;DHT22;34352;51.084;3.712;2023-04-15T08:10:37;14.70;1.00
48575;DHT22;34352;51.084;3.712;2023-04-15T08:13:11;15.20;1.00
48575;DHT22;34352;51.084;3.712;2023-04-15T08:15:40;14.80;99.90
48575;DHT22;34352;51.084;3.712;2023-04-15T08:21:57;16.90;99.90
48575;DHT22;34352;51.084;3.712;2023-04-15T08:44:36;17.10;99.90
48575;DHT22;34352;51.084;3.712;2023-04-15T08:47:38;17.20;99.90
48575;DHT22;34352;51.084;3.712;2023-04-15T08:50:34;17.20;99.90
48575;DHT22;34352;51.084;3.712;2023-04-15T08:59:05;17.60;99.90
48575;DHT22;34352;51.084;3.712;2023-04-15T09:01:32;17.50;99.90
48575;DHT22;34352;51.084;3.712;2023-04-15T09:04:10;17.80;99.90
48575;DHT22;34352;51.084;3.712;2023-04-15T09:06:59;17.40;99.90
48575;DHT22;34352;51.084;3.712;2023-04-15T09:09:36;17.30;99.90
48575;DHT22;34352;51.084;3.712;2023-04-15T09:12:07;17.70;99.90
48575;DHT22;34352;51.084;3.712;2023-04-15T09:14:34;17.70;99.90
48575;DHT22;34352;51.084;3.712;2023-04-15T09:17:02;17.60;99.90
48575;DHT22;34352;51.084;3.712;2023-04-15T09:19:28;17.30;99.90
48575;DHT22;34352;51.084;3.712;2023-04-15T09:21:57;17.40;99.90
48575;DHT22;34352;51.084;3.712;2023-04-15T09:24:25;17.70;99.90
48575;DHT22;34352;51.084;3.712;2023-04-15T09:35:33;17.30;99.90
48575;DHT22;34352;51.084;3.712;2023-04-15T09:38:08;17.60;99.90
48575;DHT22;34352;51.084;3.712;2023-04-15T09:43:10;18.40;99.90
48575;DHT22;34352;51.084;3.712;2023-04-15T09:45:50;18.60;99.90
48575;DHT22;34352;51.084;3.712;2023-04-15T09:48:18;18.20;99.90
48575;DHT22;34352;51.084;3.712;2023-04-15T09:51:13;18.50;99.90
48575;DHT22;34352;51.084;3.712;2023-04-15T09:53:54;17.90;99.90
48575;DHT22;34352;51.084;3.712;2023-04-15T09:56:21;18.10;99.90
48575;DHT22;34352;51.084;3.712;2023-04-15T09:58:55;18.60;99.90
48575;DHT22;34352;51.084;3.712;2023-04-15T10:01:21;19.10;99.90
48575;DHT22;34352;51.084;3.712;2023-04-15T10:03:47;19.60;99.90
48575;DHT22;34352;51.084;3.712;2023-04-15T10:06:13;19.60;99.90
48575;DHT22;34352;51.084;3.712;2023-04-15T10:08:39;20.30;99.90
48575;DHT22;34352;51.084;3.712;2023-04-15T10:11:06;21.20;99.90
48575;DHT22;34352;51.084;3.712;2023-04-15T10:13:33;22.10;99.90
48575;DHT22;34352;51.084;3.712;2023-04-15T10:16:07;23.10;99.90
48575;DHT22;34352;51.084;3.712;2023-04-15T10:18:42;23.90;99.90
48575;DHT22;34352;51.084;3.712;2023-04-15T10:21:08;24.20;99.90
48575;DHT22;34352;51.084;3.712;2023-04-15T10:23:34;25.00;99.90
48575;DHT22;34352;51.084;3.712;2023-04-15T10:26:02;25.10;99.90
48575;DHT22;34352;51.084;3.712;2023-04-15T10:28:28;24.90;99.90
48575;DHT22;34352;51.084;3.712;2023-04-15T10:30:55;25.70;99.90
48575;DHT22;34352;51.084;3.712;2023-04-15T10:33:22;26.10;99.90
48575;DHT22;34352;51.084;3.712;2023-04-15T10:35:50;25.50;99.90
48575;DHT22;34352;51.084;3.712;2023-04-15T10:38:35;23.80;99.90
48575;DHT22;34352;51.084;3.712;2023-04-15T10:41:22;23.70;99.90
48575;DHT22;34352;51.084;3.712;2023-04-15T10:43:53;24.10;99.90
48575;DHT22;34352;51.084;3.712;2023-04-15T10:46:44;24.40;99.90
48575;DHT22;34352;51.084;3.712;2023-04-15T10:49:15;24.50;99.90
48575;DHT22;34352;51.084;3.712;2023-04-15T10:51:51;24.00;99.90
48575;DHT22;34352;51.084;3.712;2023-04-15T10:54:31;23.90;99.90
48575;DHT22;34352;51.084;3.712;2023-04-15T10:59:35;23.30;99.90
48575;DHT22;34352;51.084;3.712;2023-04-15T11:02:06;22.50;99.90
48575;DHT22;34352;51.084;3.712;2023-04-15T11:12:47;24.00;99.90
48575;DHT22;34352;51.084;3.712;2023-04-15T11:15:32;25.20;99.90
48575;DHT22;34352;51.084;3.712;2023-04-15T11:18:25;25.50;99.90
48575;DHT22;34352;51.084;3.712;2023-04-15T11:20:54;26.20;99.90
48575;DHT22;34352;51.084;3.712;2023-04-15T11:25:59;26.00;99.90
48575;DHT22;34352;51.084;3.712;2023-04-15T11:28:27;25.60;99.90
48575;DHT22;34352;51.084;3.712;2023-04-15T11:30:53;24.40;99.90
48575;DHT22;34352;51.084;3.712;2023-04-15T11:33:20;24.80;99.90
48575;DHT22;34352;51.084;3.712;2023-04-15T11:35:47;24.50;99.90
48575;DHT22;34352;51.084;3.712;2023-04-15T11:38:13;24.20;99.90
48575;DHT22;34352;51.084;3.712;2023-04-15T11:40:40;24.70;99.90
48575;DHT22;34352;51.084;3.712;2023-04-15T11:43:14;24.60;99.90
48575;DHT22;34352;51.084;3.712;2023-04-15T11:45:56;24.20;99.90
48575;DHT22;34352;51.084;3.712;2023-04-15T11:48:24;24.70;99.90
48575;DHT22;34352;51.084;3.712;2023-04-15T11:50:58;25.70;99.90
48575;DHT22;34352;51.084;3.712;2023-04-15T11:53:25;25.20;99.90
48575;DHT22;34352;51.084;3.712;2023-04-15T11:56:00;25.00;99.90
48575;DHT22;34352;51.084;3.712;2023-04-15T11:58:25;24.70;99.90
48575;DHT22;34352;51.084;3.712;2023-04-15T12:00:54;25.10;99.90
48575;DHT22;34352;51.084;3.712;2023-04-15T12:03:35;24.70;1.00
48575;DHT22;34352;51.084;3.712;2023-04-15T12:06:14;25.00;1.00
48575;DHT22;34352;51.084;3.712;2023-04-15T12:09:19;24.90;1.00
48575;DHT22;34352;51.084;3.712;2023-04-15T12:11:50;24.70;99.90
48575;DHT22;34352;51.084;3.712;2023-04-15T12:16:50;23.50;1.00
48575;DHT22;34352;51.084;3.712;2023-04-15T12:19:26;23.00;1.00
48575;DHT22;34352;51.084;3.712;2023-04-15T12:21:57;24.10;1.00
48575;DHT22;34352;51.084;3.712;2023-04-15T12:24:24;25.00;99.90
48575;DHT22;34352;51.084;3.712;2023-04-15T12:26:54;25.30;1.00
48575;DHT22;34352;51.084;3.712;2023-04-15T12:29:28;23.70;1.00
48575;DHT22;34352;51.084;3.712;2023-04-15T12:32:08;24.30;99.90
48575;DHT22;34352;51.084;3.712;2023-04-15T12:34:39;24.30;1.00
48575;DHT22;34352;51.084;3.712;2023-04-15T12:37:10;24.60;1.00
48575;DHT22;34352;51.084;3.712;2023-04-15T12:39:39;25.10;1.00
48575;DHT22;34352;51.084;3.712;2023-04-15T12:42:08;24.90;1.00
48575;DHT22;34352;51.084;3.712;2023-04-15T12:44:35;24.90;1.00
48575;DHT22;34352;51.084;3.712;2023-04-15T12:47:01;25.30;1.00
48575;DHT22;34352;51.084;3.712;2023-04-15T12:49:28;24.60;1.00
48575;DHT22;34352;51.084;3.712;2023-04-15T12:51:55;23.40;1.00
48575;DHT22;34352;51.084;3.712;2023-04-15T12:54:22;23.10;1.00
48575;DHT22;34352;51.084;3.712;2023-04-15T12:56:48;23.60;1.00
48575;DHT22;34352;51.084;3.712;2023-04-15T12:59:15;24.00;1.00
48575;DHT22;34352;51.084;3.712;2023-04-15T13:01:43;24.40;1.00
48575;DHT22;34352;51.084;3.712;2023-04-15T13:04:09;24.70;1.00
48575;DHT22;34352;51.084;3.712;2023-04-15T13:06:35;24.40;1.00
48575;DHT22;34352;51.084;3.712;2023-04-15T13:09:02;24.30;1.00
48575;DHT22;34352;51.084;3.712;2023-04-15T13:11:28;23.30;1.00
48575;DHT22;34352;51.084;3.712;2023-04-15T13:13:56;23.10;1.00
48575;DHT22;34352;51.084;3.712;2023-04-15T13:16:23;22.80;1.00
48575;DHT22;34352;51.084;3.712;2023-04-15T13:18:50;22.00;1.00
48575;DHT22;34352;51.084;3.712;2023-04-15T13:21:15;21.90;1.00
48575;DHT22;34352;51.084;3.712;2023-04-15T13:23:41;22.40;1.00
48575;DHT22;34352;51.084;3.712;2023-04-15T13:26:07;22.60;1.00
48575;DHT22;34352;51.084;3.712;2023-04-15T13:28:33;22.50;1.00
48575;DHT22;34352;51.084;3.712;2023-04-15T13:30:59;22.20;1.00
48575;DHT22;34352;51.084;3.712;2023-04-15T13:33:25;22.30;1.00
48575;DHT22;34352;51.084;3.712;2023-04-15T13:35:51;22.50;1.00
48575;DHT22;34352;51.084;3.712;2023-04-15T13:38:16;22.60;1.00
48575;DHT22;34352;51.084;3.712;2023-04-15T13:40:42;23.30;1.00
48575;DHT22;34352;51.084;3.712;2023-04-15T13:43:08;23.80;1.00
48575;DHT22;34352;51.084;3.712;2023-04-15T13:45:33;23.80;1.00
48575;DHT22;34352;51.084;3.712;2023-04-15T13:47:59;24.00;1.00
48575;DHT22;34352;51.084;3.712;2023-04-15T13:50:26;23.60;1.00
48575;DHT22;34352;51.084;3.712;2023-04-15T13:52:51;23.80;1.00
48575;DHT22;34352;51.084;3.712;2023-04-15T13:55:17;24.00;1.00
48575;DHT22;34352;51.084;3.712;2023-04-15T13:57:43;23.90;1.00
48575;DHT22;34352;51.084;3.712;2023-04-15T14:00:09;23.60;1.00
48575;DHT22;34352;51.084;3.712;2023-04-15T14:02:35;23.00;1.00
48575;DHT22;34352;51.084;3.712;2023-04-15T14:05:01;22.80;1.00
48575;DHT22;34352;51.084;3.712;2023-04-15T14:07:28;23.10;1.00
48575;DHT22;34352;51.084;3.712;2023-04-15T14:09:55;23.40;1.00
48575;DHT22;34352;51.084;3.712;2023-04-15T14:12:21;23.10;1.00
48575;DHT22;34352;51.084;3.712;2023-04-15T14:14:46;22.70;1.00
48575;DHT22;34352;51.084;3.712;2023-04-15T14:17:12;22.30;1.00
48575;DHT22;34352;51.084;3.712;2023-04-15T14:19:38;22.40;99.90
48575;DHT22;34352;51.084;3.712;2023-04-15T14:22:04;22.30;99.90
48575;DHT22;34352;51.084;3.712;2023-04-15T14:24:30;22.00;1.00
48575;DHT22;34352;51.084;3.712;2023-04-15T14:26:57;21.70;1.00
48575;DHT22;34352;51.084;3.712;2023-04-15T14:29:24;21.70;99.90
48575;DHT22;34352;51.084;3.712;2023-04-15T14:31:50;21.60;1.00
48575;DHT22;34352;51.084;3.712;2023-04-15T14:34:17;21.50;99.90
48575;DHT22;34352;51.084;3.712;2023-04-15T14:36:43;21.30;99.90
48575;DHT22;34352;51.084;3.712;2023-04-15T14:39:14;20.80;99.90
48575;DHT22;34352;51.084;3.712;2023-04-15T14:41:42;20.30;99.90
48575;DHT22;34352;51.084;3.712;2023-04-15T14:44:22;20.00;99.90
48575;DHT22;34352;51.084;3.712;2023-04-15T14:46:48;19.70;99.90
48575;DHT22;34352;51.084;3.712;2023-04-15T14:49:24;19.40;99.90
48575;DHT22;34352;51.084;3.712;2023-04-15T14:52:05;19.10;99.90
48575;DHT22;34352;51.084;3.712;2023-04-15T14:54:36;18.70;99.90
48575;DHT22;34352;51.084;3.712;2023-04-15T14:57:02;18.50;99.90
48575;DHT22;34352;51.084;3.712;2023-04-15T14:59:30;18.20;99.90
48575;DHT22;34352;51.084;3.712;2023-04-15T15:01:57;18.10;99.90
48575;DHT22;34352;51.084;3.712;2023-04-15T15:04:22;18.10;99.90
48575;DHT22;34352;51.084;3.712;2023-04-15T15:06:48;18.00;99.90
48575;DHT22;34352;51.084;3.712;2023-04-15T15:09:15;17.80;99.90
48575;DHT22;34352;51.084;3.712;2023-04-15T15:11:40;17.80;99.90
48575;DHT22;34352;51.084;3.712;2023-04-15T15:14:06;17.50;99.90
48575;DHT22;34352;51.084;3.712;2023-04-15T15:16:31;17.40;99.90
48575;DHT22;34352;51.084;3.712;2023-04-15T15:18:57;17.10;99.90
48575;DHT22;34352;51.084;3.712;2023-04-15T15:21:24;17.00;99.90
48575;DHT22;34352;51.084;3.712;2023-04-15T15:23:51;16.70;99.90
48575;DHT22;34352;51.084;3.712;2023-04-15T15:26:16;16.30;99.90
48575;DHT22;34352;51.084;3.712;2023-04-15T15:28:43;16.30;99.90
48575;DHT22;34352;51.084;3.712;2023-04-15T15:31:11;16.30;99.90
48575;DHT22;34352;51.084;3.712;2023-04-15T15:33:37;16.40;99.90
48575;DHT22;34352;51.084;3.712;2023-04-15T15:36:03;16.40;99.90
48575;DHT22;34352;51.084;3.712;2023-04-15T15:38:29;16.30;99.90
48575;DHT22;34352;51.084;3.712;2023-04-15T15:40:55;16.10;99.90
48575;DHT22;34352;51.084;3.712;2023-04-15T15:43:23;16.20;99.90
48575;DHT22;34352;51.084;3.712;2023-04-15T15:45:50;16.20;99.90
48575;DHT22;34352;51.084;3.712;2023-04-15T15:48:22;15.90;99.90
48575;DHT22;34352;51.084;3.712;2023-04-15T15:50:48;15.90;99.90
48575;DHT22;34352;51.084;3.712;2023-04-15T15:53:14;16.20;99.90
48575;DHT22;34352;51.084;3.712;2023-04-15T15:55:46;16.20;99.90
48575;DHT22;34352;51.084;3.712;2023-04-15T15:58:13;16.10;99.90
48575;DHT22;34352;51.084;3.712;2023-04-15T16:00:38;16.00;99.90
48575;DHT22;34352;51.084;3.712;2023-04-15T16:03:04;15.70;99.90
48575;DHT22;34352;51.084;3.712;2023-04-15T16:05:31;15.60;99.90
48575;DHT22;34352;51.084;3.712;2023-04-15T16:07:57;15.60;99.90
48575;DHT22;34352;51.084;3.712;2023-04-15T16:10:23;15.60;99.90
48575;DHT22;34352;51.084;3.712;2023-04-15T16:12:49;15.60;99.90
48575;DHT22;34352;51.084;3.712;2023-04-15T16:15:15;15.50;99.90
48575;DHT22;34352;51.084;3.712;2023-04-15T16:17:42;13.80;99.90
48575;DHT22;34352;51.084;3.712;2023-04-15T16:20:08;15.10;99.90
48575;DHT22;34352;51.084;3.712;2023-04-15T16:22:34;15.10;99.90
48575;DHT22;34352;51.084;3.712;2023-04-15T16:25:00;15.10;99.90
48575;DHT22;34352;51.084;3.712;2023-04-15T16:27:28;15.00;99.90
48575;DHT22;34352;51.084;3.712;2023-04-15T16:29:57;14.80;99.90
48575;DHT22;34352;51.084;3.712;2023-04-15T16:32:23;14.80;99.90
48575;DHT22;34352;51.084;3.712;2023-04-15T16:34:49;14.80;99.90
48575;DHT22;34352;51.084;3.712;2023-04-15T16:37:14;14.50;99.90
48575;DHT22;34352;51.084;3.712;2023-04-15T16:39:40;14.50;99.90
48575;DHT22;34352;51.084;3.712;2023-04-15T16:42:06;14.50;99.90
48575;DHT22;34352;51.084;3.712;2023-04-15T16:44:33;14.60;99.90
48575;DHT22;34352;51.084;3.712;2023-04-15T16:47:12;14.60;99.90
48575;DHT22;34352;51.084;3.712;2023-04-15T16:49:42;14.50;99.90
48575;DHT22;34352;51.084;3.712;2023-04-15T16:52:18;14.40;99.90
48575;DHT22;34352;51.084;3.712;2023-04-15T16:54:44;14.30;99.90
48575;DHT22;34352;51.084;3.712;2023-04-15T16:57:14;14.10;99.90
48575;DHT22;34352;51.084;3.712;2023-04-15T16:59:41;14.00;99.90
48575;DHT22;34352;51.084;3.712;2023-04-15T17:02:13;14.60;99.90
48575;DHT22;34352;51.084;3.712;2023-04-15T17:05:15;13.90;99.90
48575;DHT22;34352;51.084;3.712;2023-04-15T17:08:08;13.10;99.90
48575;DHT22;34352;51.084;3.712;2023-04-15T17:11:16;13.70;99.90
48575;DHT22;34352;51.084;3.712;2023-04-15T17:13:44;13.60;99.90
48575;DHT22;34352;51.084;3.712;2023-04-15T17:16:14;13.70;99.90